Time;durP1;ratioP1;P1;durP2;ratioP2;P2;SDS_P1;SDS_P2;PMS_P1;PMS_P2;Temp;Humidity;BMP_temperature;BMP_pressure;BME280_temperature;BME280_humidity;BME280_pressure;Samples;Min_cycle;Max_cycle;Signal;HPM_P1;HPM_P2
2020/12/18 00:00:09;;;;;;;52.58;22.95;;;;;;;2.38;79.17;98149.96;1737891;83;21104;-82
2020/12/18 00:02:40;;;;;;;56.00;23.62;;;;;;;2.36;79.02;98153.52;1749542;82;21110;-79
2020/12/18 00:05:08;;;;;;;56.53;24.20;;;;;;;2.43;79.22;98155.03;1738056;83;21297;-83
2020/12/18 00:07:37;;;;;;;54.55;23.62;;;;;;;2.54;79.57;98150.81;1748851;78;21267;-80
2020/12/18 00:10:04;;;;;;;59.23;25.70;;;;;;;2.57;79.05;98160.68;1734082;83;21147;-86
2020/12/18 00:12:31;;;;;;;56.83;23.00;;;;;;;2.56;79.15;98158.10;1744925;82;21156;-86
2020/12/18 00:14:59;;;;;;;33.18;13.53;;;;;;;2.60;79.05;98159.73;1733741;83;21576;-85
2020/12/18 00:17:26;;;;;;;62.43;24.15;;;;;;;2.59;79.02;98161.92;1745165;82;21622;-85
2020/12/18 00:19:54;;;;;;;61.15;22.25;;;;;;;2.54;78.75;98160.77;1733770;83;21158;-85
2020/12/18 00:22:21;;;;;;;58.08;23.85;;;;;;;2.46;78.83;98154.48;1744993;82;21181;-86
2020/12/18 00:24:49;;;;;;;29.77;10.72;;;;;;;2.50;78.93;98159.17;1733742;83;21565;-85
2020/12/18 00:27:16;;;;;;;54.25;22.17;;;;;;;2.52;79.52;98165.63;1745058;82;21358;-85
2020/12/18 00:29:44;;;;;;;61.05;22.87;;;;;;;2.44;79.18;98161.51;1737320;83;21154;-82
2020/12/18 00:32:12;;;;;;;31.93;12.75;;;;;;;2.46;79.37;98163.59;1723231;82;21255;-81
2020/12/18 00:34:40;;;;;;;52.55;21.35;;;;;;;2.52;79.33;98163.02;1737115;83;21246;-80
2020/12/18 00:37:07;;;;;;;62.03;24.57;;;;;;;2.47;79.03;98165.77;1748572;82;21310;-81
2020/12/18 00:39:34;;;;;;;55.33;23.85;;;;;;;2.47;79.40;98163.16;1737247;83;21221;-82
2020/12/18 00:42:02;;;;;;;55.17;23.62;;;;;;;2.48;79.13;98166.16;1748400;82;21113;-81
2020/12/18 00:44:29;;;;;;;55.05;22.55;;;;;;;2.46;79.23;98170.09;1736984;83;21138;-80
2020/12/18 00:46:56;;;;;;;51.37;21.73;;;;;;;2.42;79.58;98161.12;1748545;82;21315;-80
2020/12/18 00:49:24;;;;;;;50.15;21.15;;;;;;;2.47;80.09;98163.16;1737174;83;21107;-81
2020/12/18 00:51:53;;;;;;;68.15;25.95;;;;;;;2.55;79.54;98165.53;1748311;82;21279;-80
2020/12/18 00:54:24;;;;;;;62.17;24.70;;;;;;;2.63;79.98;98163.55;1737096;83;21134;-81
2020/12/18 00:56:51;;;;;;;50.85;22.32;;;;;;;2.76;79.72;98164.84;1748607;82;21310;-82
2020/12/18 00:59:20;;;;;;;44.38;16.10;;;;;;;2.83;79.61;98157.70;1737256;83;21135;-80
2020/12/18 01:01:47;;;;;;;54.53;21.73;;;;;;;2.84;79.15;98155.94;1622928;88;21187;-82
2020/12/18 01:04:15;;;;;;;58.10;22.15;;;;;;;2.80;79.08;98161.26;1666571;86;21228;-81
2020/12/18 01:06:42;;;;;;;57.93;24.00;;;;;;;2.76;79.04;98161.41;1666742;86;21200;-81
2020/12/18 01:09:10;;;;;;;65.40;26.05;;;;;;;2.72;79.22;98163.26;1666684;86;21124;-82
2020/12/18 01:11:38;;;;;;;54.93;20.15;;;;;;;2.73;79.28;98157.59;1662839;86;21636;-82
2020/12/18 01:14:08;;;;;;;59.00;24.30;;;;;;;2.77;78.88;98157.91;1597427;90;21319;-80
2020/12/18 01:16:38;;;;;;;61.25;25.62;;;;;;;2.72;78.89;98154.14;1666466;86;21203;-83
2020/12/18 01:19:05;;;;;;;57.20;22.67;;;;;;;2.75;79.10;98160.54;1685697;80;21191;-84
2020/12/18 01:21:36;;;;;;;58.50;23.52;;;;;;;2.72;78.95;98161.95;1805133;79;21096;-79
2020/12/18 01:24:04;;;;;;;61.25;22.93;;;;;;;2.77;78.93;98160.05;1801848;79;21120;-85
2020/12/18 01:26:34;;;;;;;55.03;20.20;;;;;;;2.71;78.67;98155.47;1805379;79;21227;-80
2020/12/18 01:29:02;;;;;;;55.35;22.75;;;;;;;2.66;79.02;98162.13;1786600;80;21252;-82
2020/12/18 01:31:51;;;;;;;49.85;17.87;;;;;;;2.63;78.96;98154.44;1804250;79;21172;-81
2020/12/18 01:34:20;;;;;;;53.20;21.02;;;;;;;2.58;79.49;98158.91;1805338;79;21096;-81
2020/12/18 01:36:48;;;;;;;52.25;19.25;;;;;;;2.53;79.31;98155.16;1787642;80;21128;-81
2020/12/18 01:39:32;;;;;;;65.78;24.85;;;;;;;2.56;79.48;98158.10;1824224;77;24322;-84
2020/12/18 01:42:00;;;;;;;51.68;21.62;;;;;;;2.50;79.62;98158.70;1828250;78;21359;-84
2020/12/18 01:44:27;;;;;;;51.60;18.85;;;;;;;2.50;80.30;98165.22;1792239;80;21175;-83
2020/12/18 01:46:56;;;;;;;63.52;23.85;;;;;;;2.52;79.68;98158.66;1760855;81;21139;-84
2020/12/18 01:49:24;;;;;;;55.73;23.47;;;;;;;2.48;79.70;98157.06;1791829;80;21112;-84
2020/12/18 01:51:55;;;;;;;59.15;24.40;;;;;;;2.49;79.95;98159.60;1774021;81;21163;-80
2020/12/18 01:54:26;;;;;;;60.35;24.20;;;;;;;2.60;80.08;98159.73;1760519;81;21274;-81
2020/12/18 01:56:54;;;;;;;58.78;24.75;;;;;;;2.57;79.86;98164.59;1770674;81;21160;-84
2020/12/18 01:59:28;;;;;;;63.42;23.87;;;;;;;2.57;79.80;98161.11;1764758;81;21155;-82
2020/12/18 02:02:07;;;;;;;53.25;24.50;;;;;;;2.61;79.93;98157.53;1769459;81;21172;-85
2020/12/18 02:04:45;;;;;;;57.87;22.60;;;;;;;2.59;79.67;98159.32;1764583;81;21283;-81
2020/12/18 02:07:20;;;;;;;56.85;22.00;;;;;;;2.58;79.80;98168.02;1770240;81;21608;-84
2020/12/18 02:09:51;;;;;;;66.02;27.30;;;;;;;2.60;79.78;98164.94;1763376;81;21310;-80
2020/12/18 02:12:26;;;;;;;50.80;17.27;;;;;;;2.60;79.75;98164.94;1774225;81;21131;-81
2020/12/18 02:14:53;;;;;;;61.73;22.27;;;;;;;2.58;79.59;98163.69;1774219;81;21247;-81
2020/12/18 02:17:22;;;;;;;47.38;16.60;;;;;;;2.49;79.80;98160.06;1738041;83;21334;-81
2020/12/18 02:19:53;;;;;;;68.92;28.05;;;;;;;2.42;80.88;98160.70;1768441;81;21255;-81
2020/12/18 02:22:26;;;;;;;64.37;23.95;;;;;;;2.34;80.32;98161.38;1768521;81;21281;-81
2020/12/18 02:25:07;;;;;;;68.33;25.12;;;;;;;2.38;80.46;98162.13;1768707;81;21306;-80
2020/12/18 02:27:37;;;;;;;61.95;26.60;;;;;;;2.44;80.44;98160.20;1768686;81;21290;-80
2020/12/18 02:30:11;;;;;;;49.70;20.30;;;;;;;2.46;80.31;98161.45;1758598;81;21201;-81
2020/12/18 02:32:47;;;;;;;65.20;25.35;;;;;;;2.55;80.43;98156.42;1718626;83;21372;-81
2020/12/18 02:35:15;;;;;;;61.08;25.60;;;;;;;2.61;80.35;98154.92;1720690;81;21278;-81
2020/12/18 02:37:48;;;;;;;64.22;25.75;;;;;;;2.71;80.60;98147.66;1720554;81;21293;-82
2020/12/18 02:40:39;;;;;;;54.98;22.60;;;;;;;2.75;80.27;98144.08;1707358;81;21238;-82
2020/12/18 02:44:14;;;;;;;62.25;24.57;;;;;;;2.77;80.11;98137.91;1649674;87;21191;-82
2020/12/18 02:46:55;;;;;;;55.43;23.73;;;;;;;2.76;80.18;98144.02;1779811;79;24163;-86
2020/12/18 02:49:22;;;;;;;58.40;24.35;;;;;;;2.62;80.05;98146.22;1753784;81;21570;-88
2020/12/18 02:51:53;;;;;;;62.78;23.07;;;;;;;2.54;80.44;98146.91;1757774;79;21262;-82
2020/12/18 02:54:25;;;;;;;67.35;27.55;;;;;;;2.48;80.37;98146.19;1753218;79;21262;-83
2020/12/18 02:57:53;;;;;;;62.30;25.02;;;;;;;2.51;80.32;98151.73;1757940;79;21159;-82
2020/12/18 03:00:30;;;;;;;57.40;23.50;;;;;;;2.63;80.66;98151.83;1756782;79;21137;-82
2020/12/18 03:03:04;;;;;;;50.23;19.20;;;;;;;2.70;80.44;98154.64;1729079;81;21270;-82
2020/12/18 03:06:22;;;;;;;39.23;17.20;;;;;;;2.38;80.31;98092.71;1757623;82;21274;-83
2020/12/18 03:09:24;;;;;;;;;;;;;;;2.74;80.19;98155.39;1760615;80;21206;-84
2020/12/18 03:12:20;;;;;;;59.98;23.45;;;;;;;2.59;80.50;98152.38;1665354;85;20213;-83
2020/12/18 03:15:56;;;;;;;44.88;18.48;;;;;;;2.53;80.56;98160.36;1663900;84;21267;-81
2020/12/18 03:18:40;;;;;;;57.08;26.23;;;;;;;2.59;80.44;98161.92;1824329;77;24703;-85
2020/12/18 03:21:12;;;;;;;49.63;19.48;;;;;;;2.45;80.37;98158.01;1764339;80;21258;-82
2020/12/18 03:23:48;;;;;;;40.40;18.55;;;;;;;2.39;80.81;98159.94;1774642;80;21309;-83
2020/12/18 03:26:23;;;;;;;52.43;22.52;;;;;;;2.35;80.78;98163.09;1760667;80;21271;-81
2020/12/18 03:28:54;;;;;;;56.53;23.05;;;;;;;2.37;80.65;98166.47;1773349;80;21128;-82
2020/12/18 03:31:24;;;;;;;52.88;22.95;;;;;;;2.44;80.57;98167.14;1763382;79;21255;-81
2020/12/18 03:34:09;;;;;;;57.53;24.70;;;;;;;2.45;80.54;98170.16;1742494;82;21246;-82
2020/12/18 03:37:45;;;;;;;52.13;22.80;;;;;;;2.47;80.55;98173.11;1742406;82;21263;-83
2020/12/18 03:41:19;;;;;;;53.40;24.47;;;;;;;2.56;80.54;98171.12;1742445;82;21223;-82
2020/12/18 03:44:45;;;;;;;43.73;17.73;;;;;;;2.68;80.51;98175.12;1763167;81;21261;-82
2020/12/18 03:47:14;;;;;;;43.68;19.55;;;;;;;2.74;80.42;98167.94;1711432;82;21155;-86
2020/12/18 03:49:46;;;;;;;54.30;22.02;;;;;;;2.76;80.26;98175.73;1762357;80;21327;-82
2020/12/18 03:52:16;;;;;;;49.53;21.35;;;;;;;2.74;80.18;98174.45;1715901;81;21254;-80
2020/12/18 03:54:47;;;;;;;51.92;22.85;;;;;;;2.74;80.09;98173.61;1762689;81;21113;-80
2020/12/18 03:57:33;;;;;;;63.73;27.80;;;;;;;2.72;79.97;98171.06;1730150;81;21271;-80
2020/12/18 04:00:41;;;;;;;55.90;25.10;;;;;;;2.83;80.20;98170.72;1791886;80;25997;-81
2020/12/18 04:03:58;;;;;;;57.53;25.72;;;;;;;2.84;80.08;98171.55;1675898;81;21136;-81
2020/12/18 04:10:27;;;;;;;49.55;24.37;;;;;;;2.96;79.88;98172.48;1732064;82;21140;-84
2020/12/18 04:14:22;;;;;;;;;;;;;;;;;;;;;
2020/12/18 04:16:58;;;;;;;47.75;21.87;;;;;;;2.97;79.07;98201.53;1824372;77;24168;-87
2020/12/18 04:19:26;;;;;;;45.03;20.68;;;;;;;2.81;79.52;98175.98;1825499;78;21143;-87
2020/12/18 04:21:54;;;;;;;44.98;20.80;;;;;;;2.76;79.29;98180.47;1760695;81;21186;-86
2020/12/18 04:24:28;;;;;;;41.53;18.45;;;;;;;2.76;79.49;98179.63;1743338;81;21298;-81
2020/12/18 04:27:21;;;;;;;46.83;21.60;;;;;;;2.74;79.48;98187.94;1774598;78;21297;-81
2020/12/18 04:29:54;;;;;;;58.20;25.02;;;;;;;2.65;79.50;98186.45;1774567;81;21239;-82
2020/12/18 04:33:09;;;;;;;46.98;20.70;;;;;;;2.63;79.80;98183.91;1708074;79;21119;-82
2020/12/18 04:36:37;;;;;;;33.63;16.30;;;;;;;2.71;79.87;98186.28;1766738;78;21132;-84
2020/12/18 04:39:54;;;;;;;42.17;19.73;;;;;;;2.66;79.66;98181.66;1736824;79;21279;-82
2020/12/18 04:42:46;;;;;;;40.12;19.62;;;;;;;2.59;79.89;98189.25;1744058;82;21164;-84
2020/12/18 04:46:13;;;;;;;48.78;20.37;;;;;;;2.59;79.64;98190.12;1743950;79;21146;-82
2020/12/18 04:49:09;;;;;;;39.65;18.10;;;;;;;2.58;79.51;98182.34;1743867;81;21154;-81
2020/12/18 04:52:38;;;;;;;40.73;16.70;;;;;;;2.61;79.78;98191.38;1700959;81;21242;-82
2020/12/18 04:56:14;;;;;;;44.20;19.57;;;;;;;2.65;79.65;98193.83;1697724;81;21144;-80
2020/12/18 04:59:37;;;;;;;37.03;16.27;;;;;;;2.57;79.54;98191.91;1752050;79;21121;-80
2020/12/18 05:02:39;;;;;;;45.33;20.85;;;;;;;2.53;79.90;98190.75;1743098;82;21117;-81
2020/12/18 05:05:10;;;;;;;43.40;19.57;;;;;;;2.45;79.96;98188.38;1749474;81;21597;-87
2020/12/18 05:07:39;;;;;;;40.65;20.50;;;;;;;2.42;79.92;98189.33;1742492;79;21278;-81
2020/12/18 05:10:08;;;;;;;48.78;22.27;;;;;;;2.49;79.91;98192.60;1743475;82;21184;-84
2020/12/18 05:12:58;;;;;;;42.98;20.50;;;;;;;2.49;80.03;98193.91;1746918;78;21259;-83
2020/12/18 05:15:40;;;;;;;50.00;21.07;;;;;;;2.53;79.89;98188.15;1775197;80;21239;-81
2020/12/18 05:18:37;;;;;;;29.02;12.23;;;;;;;2.70;79.73;98196.73;1824315;77;24384;-87
2020/12/18 05:21:42;;;;;;;48.15;22.50;;;;;;;2.69;79.40;98194.59;1830051;76;21170;-84
2020/12/18 05:25:11;;;;;;;32.48;11.20;;;;;;;2.63;79.39;98193.02;1743214;80;21128;-81
2020/12/18 05:28:44;;;;;;;37.30;17.40;;;;;;;2.60;79.18;98190.50;1773139;80;21123;-82
2020/12/18 05:32:21;;;;;;;47.78;20.68;;;;;;;2.47;79.44;98199.59;1727573;81;21177;-81
2020/12/18 05:34:51;;;;;;;52.78;23.02;;;;;;;2.41;79.58;98186.77;1691286;85;21291;-84
2020/12/18 05:38:01;;;;;;;47.53;21.62;;;;;;;2.40;79.79;98187.67;1696674;85;21164;-80
2020/12/18 05:40:53;;;;;;;55.38;23.67;;;;;;;2.44;79.90;98196.64;1728996;83;21118;-86
2020/12/18 05:43:25;;;;;;;45.65;20.72;;;;;;;2.49;79.83;98190.84;1705379;83;21165;-82
2020/12/18 05:45:54;;;;;;;49.90;23.67;;;;;;;2.56;79.87;98199.75;1726675;83;21157;-83
2020/12/18 05:48:26;;;;;;;44.48;20.45;;;;;;;2.63;79.91;98198.69;1699777;83;21153;-80
2020/12/18 05:50:58;;;;;;;52.43;22.55;;;;;;;2.73;79.64;98201.42;1726773;83;21161;-80
2020/12/18 05:53:26;;;;;;;55.85;26.12;;;;;;;2.77;79.60;98200.41;1728734;83;21142;-80
2020/12/18 05:55:59;;;;;;;53.13;24.85;;;;;;;2.81;79.45;98208.54;1728374;83;21246;-83
2020/12/18 05:58:31;;;;;;;33.90;14.50;;;;;;;2.86;79.35;98214.03;1727487;83;21154;-82
2020/12/18 06:01:59;;;;;;;50.55;23.95;;;;;;;2.92;79.23;98209.95;1728758;83;21161;-83
2020/12/18 06:05:09;;;;;;;56.50;27.22;;;;;;;2.73;79.12;98209.23;1728494;83;21209;-85
2020/12/18 06:07:40;;;;;;;47.00;20.52;;;;;;;2.63;79.17;98213.01;1726093;83;21165;-83
2020/12/18 06:10:22;;;;;;;54.48;25.85;;;;;;;2.61;79.30;98211.73;1726617;83;21126;-82
2020/12/18 06:13:03;;;;;;;55.10;25.23;;;;;;;2.60;79.39;98207.42;1721840;79;21146;-80
2020/12/18 06:16:07;;;;;;;54.27;25.32;;;;;;;2.57;79.75;98206.66;1729122;83;21138;-79
2020/12/18 06:18:42;;;;;;;52.60;22.10;;;;;;;2.61;79.51;98210.43;1703377;83;21276;-83
2020/12/18 06:21:13;;;;;;;54.58;25.23;;;;;;;2.65;79.31;98215.09;1728693;83;21177;-83
2020/12/18 06:23:45;;;;;;;53.08;26.23;;;;;;;2.67;79.47;98209.86;1728839;83;21241;-83
2020/12/18 06:26:21;;;;;;;38.42;15.40;;;;;;;2.73;79.59;98213.13;1704028;83;21292;-81
2020/12/18 06:29:07;;;;;;;45.60;19.62;;;;;;;2.78;79.53;98215.13;1728996;82;21261;-81
2020/12/18 06:31:36;;;;;;;52.38;25.27;;;;;;;2.71;79.22;98216.23;1751309;82;21125;-83
2020/12/18 06:34:28;;;;;;;49.83;24.25;;;;;;;2.71;79.43;98213.62;1749507;82;21282;-81
2020/12/18 06:37:32;;;;;;;51.08;22.10;;;;;;;2.82;79.50;98219.80;1827737;77;23555;-82
2020/12/18 06:40:04;;;;;;;50.95;23.22;;;;;;;2.83;79.48;98220.20;1828428;78;21274;-80
2020/12/18 06:42:50;;;;;;;49.00;21.35;;;;;;;2.92;79.50;98224.28;1795345;80;21231;-82
2020/12/18 06:45:28;;;;;;;51.60;24.10;;;;;;;3.05;79.42;98229.48;1697068;81;21330;-82
2020/12/18 06:48:26;;;;;;;56.88;25.50;;;;;;;3.03;79.04;98230.45;1774271;81;21287;-83
2020/12/18 06:51:28;;;;;;;51.23;24.10;;;;;;;3.04;79.10;98225.64;1764618;81;21275;-80
2020/12/18 06:54:11;;;;;;;47.93;23.73;;;;;;;3.15;79.10;98226.59;1772640;81;21266;-86
2020/12/18 06:56:57;;;;;;;52.62;25.95;;;;;;;3.18;78.84;98221.30;1772726;81;21150;-85
2020/12/18 06:59:40;;;;;;;58.78;25.12;;;;;;;3.21;78.85;98228.56;1773849;81;21242;-83
2020/12/18 07:02:33;;;;;;;24.65;9.75;;;;;;;3.24;78.60;98230.20;1764165;81;21227;-84
2020/12/18 07:05:03;;;;;;;55.88;23.38;;;;;;;3.25;78.03;98231.45;1794584;80;21243;-81
2020/12/18 07:07:41;;;;;;;56.48;27.65;;;;;;;3.05;78.33;98241.22;1764418;81;21262;-80
2020/12/18 07:10:18;;;;;;;49.53;23.57;;;;;;;3.01;78.54;98239.63;1774267;81;21118;-82
2020/12/18 07:12:50;;;;;;;;;;;;;;;3.05;78.59;98241.22;1765920;81;21160;-80
2020/12/18 07:15:17;;;;;;;45.10;19.27;;;;;;;3.15;78.56;98240.92;1795189;80;20187;-80
2020/12/18 07:17:49;;;;;;;44.15;20.27;;;;;;;3.17;78.70;98241.27;1763944;81;21168;-82
2020/12/18 07:20:17;;;;;;;53.75;27.07;;;;;;;3.18;78.56;98236.93;1745535;81;21175;-79
2020/12/18 07:22:44;;;;;;;52.55;24.65;;;;;;;3.19;78.51;98238.63;1772543;80;21159;-80
2020/12/18 07:25:12;;;;;;;53.48;26.55;;;;;;;3.28;78.70;98234.43;1772460;81;21155;-80
2020/12/18 07:27:40;;;;;;;52.78;26.85;;;;;;;3.31;78.50;98238.69;1772871;81;21139;-81
2020/12/18 07:30:12;;;;;;;59.27;27.73;;;;;;;3.34;78.24;98234.22;1762124;81;21312;-85
2020/12/18 07:32:39;;;;;;;48.48;25.10;;;;;;;3.38;78.17;98233.23;1761306;81;21125;-82
2020/12/18 07:35:09;;;;;;;52.80;26.37;;;;;;;3.38;78.05;98241.05;1731271;83;21156;-80
2020/12/18 07:37:37;;;;;;;53.10;25.85;;;;;;;3.37;77.88;98234.56;1731509;83;21298;-83
2020/12/18 07:40:05;;;;;;;40.35;16.77;;;;;;;3.30;77.74;98234.37;1731075;83;21153;-80
2020/12/18 07:42:44;;;;;;;41.88;17.57;;;;;;;3.26;77.73;98242.74;1741551;82;21720;-80
2020/12/18 07:45:27;;;;;;;59.05;25.90;;;;;;;3.11;77.91;98246.22;1762725;81;21322;-85
2020/12/18 07:48:01;;;;;;;62.67;25.70;;;;;;;3.05;78.13;98243.81;1762490;80;21286;-81
2020/12/18 07:50:28;;;;;;;40.52;14.93;;;;;;;3.10;78.29;98247.58;1741454;82;21298;-80
2020/12/18 07:52:55;;;;;;;52.13;23.87;;;;;;;3.16;78.49;98248.68;1741320;82;21175;-81
2020/12/18 07:55:24;;;;;;;53.08;25.85;;;;;;;3.11;78.34;98247.52;1740693;82;21175;-80
2020/12/18 07:57:52;;;;;;;42.35;20.50;;;;;;;3.15;78.48;98244.83;1741116;82;21143;-78
2020/12/18 08:00:19;;;;;;;57.05;24.75;;;;;;;3.11;78.41;98251.90;1740889;82;21174;-80
2020/12/18 08:02:50;;;;;;;52.75;26.93;;;;;;;3.11;78.48;98255.34;1741829;82;21250;-82
2020/12/18 08:05:25;;;;;;;52.90;23.07;;;;;;;3.08;78.51;98255.89;1714345;82;21311;-82
2020/12/18 08:08:07;;;;;;;48.13;22.55;;;;;;;3.08;78.48;98263.27;1762726;81;21163;-81
2020/12/18 08:10:42;;;;;;;54.65;27.45;;;;;;;3.04;78.46;98268.63;1715921;82;21330;-82
2020/12/18 08:13:09;;;;;;;58.50;27.00;;;;;;;3.01;78.64;98265.67;1740508;82;21289;-80
2020/12/18 08:15:36;;;;;;;59.73;24.87;;;;;;;3.07;78.72;98269.81;1739612;82;21163;-78
2020/12/18 08:18:03;;;;;;;39.95;19.98;;;;;;;3.13;78.64;98264.44;1739653;82;21172;-80
2020/12/18 08:20:31;;;;;;;54.70;26.52;;;;;;;3.12;78.40;98268.77;1740138;82;21187;-78
2020/12/18 08:22:59;;;;;;;47.43;20.70;;;;;;;3.10;78.40;98275.81;1739124;82;21172;-80
2020/12/18 08:25:36;;;;;;;51.25;21.15;;;;;;;3.04;78.38;98268.16;1741207;82;21128;-84
2020/12/18 08:28:54;;;;;;;47.33;21.55;;;;;;;2.66;78.37;98201.18;1855761;76;24388;-83
2020/12/18 08:32:09;;;;;;;58.23;25.88;;;;;;;3.07;78.55;98273.72;1781839;79;21139;-83
2020/12/18 08:34:38;;;;;;;58.28;26.00;;;;;;;3.13;78.70;98275.69;1799490;80;21147;-85
2020/12/18 08:37:23;;;;;;;52.58;23.22;;;;;;;3.27;78.92;98269.20;1727302;81;21182;-83
2020/12/18 08:40:24;;;;;;;49.98;25.30;;;;;;;3.42;78.62;98268.70;1705120;80;21289;-86
2020/12/18 08:43:00;;;;;;;55.15;26.80;;;;;;;3.50;78.44;98274.98;1726361;82;21168;-81
2020/12/18 08:45:29;;;;;;;61.28;27.48;;;;;;;3.52;78.18;98278.39;1735607;81;21285;-83
2020/12/18 08:47:56;;;;;;;46.33;22.22;;;;;;;3.55;77.61;98267.84;1736713;78;21141;-82
2020/12/18 08:50:28;;;;;;;61.23;28.80;;;;;;;3.58;77.47;98272.97;1761171;82;21266;-84
2020/12/18 08:53:12;;;;;;;61.88;29.05;;;;;;;3.50;77.61;98276.28;1719012;81;21275;-83
2020/12/18 08:55:40;;;;;;;61.45;28.60;;;;;;;3.57;77.73;98275.64;1711052;82;21309;-82
2020/12/18 08:58:20;;;;;;;42.03;18.07;;;;;;;3.54;77.41;98275.27;1722907;83;21175;-85
2020/12/18 09:00:48;;;;;;;50.25;23.70;;;;;;;3.56;77.49;98270.02;1694587;83;21306;-81
2020/12/18 09:03:15;;;;;;;49.93;23.57;;;;;;;3.51;77.51;98270.60;1731047;83;21193;-85
2020/12/18 09:05:43;;;;;;;37.10;17.98;;;;;;;3.48;77.59;98267.66;1715167;83;21283;-83
2020/12/18 09:08:16;;;;;;;52.65;24.63;;;;;;;3.46;77.45;98269.91;1747809;81;21509;-79
2020/12/18 09:10:51;;;;;;;41.48;18.27;;;;;;;3.27;77.72;98270.05;1736567;81;21131;-81
2020/12/18 09:13:27;;;;;;;55.70;25.10;;;;;;;3.31;77.87;98272.09;1740586;81;21962;-81
2020/12/18 09:16:09;;;;;;;45.50;22.75;;;;;;;3.31;77.77;98274.70;1745194;81;21266;-82
2020/12/18 09:18:41;;;;;;;54.60;24.82;;;;;;;3.32;77.91;98270.36;1731528;83;21171;-82
2020/12/18 09:21:15;;;;;;;43.60;20.05;;;;;;;3.41;78.11;98274.81;1711969;82;21215;-81
2020/12/18 09:23:46;;;;;;;43.95;23.10;;;;;;;3.53;77.87;98271.41;1721620;82;21273;-81
2020/12/18 09:26:28;;;;;;;49.88;23.47;;;;;;;3.54;77.66;98267.91;1710351;82;21153;-82
2020/12/18 09:28:57;;;;;;;61.80;30.10;;;;;;;3.55;77.63;98266.54;1686925;83;21297;-84
2020/12/18 09:31:26;;;;;;;62.40;29.32;;;;;;;3.61;77.69;98266.79;1711164;83;21258;-85
2020/12/18 09:33:59;;;;;;;47.75;26.95;;;;;;;3.66;77.72;98263.59;1732399;82;21291;-84
2020/12/18 09:36:53;;;;;;;56.48;28.25;;;;;;;3.74;77.56;98261.58;1734666;81;21273;-83
2020/12/18 09:39:37;;;;;;;33.53;12.90;;;;;;;3.75;76.32;98258.06;1718775;82;21139;-81
2020/12/18 09:42:28;;;;;;;43.13;21.62;;;;;;;3.85;76.42;98265.58;1737398;82;21286;-82
2020/12/18 09:45:12;;;;;;;57.00;23.98;;;;;;;3.70;76.54;98258.66;1737952;82;21183;-80
2020/12/18 09:47:39;;;;;;;57.78;24.25;;;;;;;3.71;76.59;98252.55;1710792;81;21285;-82
2020/12/18 09:50:06;;;;;;;37.95;18.17;;;;;;;3.79;76.93;98265.33;1720092;83;21151;-81
2020/12/18 09:52:33;;;;;;;48.48;24.82;;;;;;;3.82;76.53;98265.20;1712419;83;21152;-80
2020/12/18 09:55:03;;;;;;;42.95;23.32;;;;;;;3.70;76.64;98261.27;1731094;82;21298;-81
2020/12/18 09:57:34;;;;;;;51.68;22.82;;;;;;;3.74;76.87;98259.41;1705040;83;21180;-84
2020/12/18 10:00:08;;;;;;;52.05;24.40;;;;;;;3.83;76.36;98254.34;1708046;83;21248;-81
2020/12/18 10:02:43;;;;;;;49.25;23.83;;;;;;;3.93;76.15;98260.08;1728538;81;21177;-84
2020/12/18 10:05:10;;;;;;;39.33;19.32;;;;;;;4.00;76.56;98258.95;1709547;83;21298;-81
2020/12/18 10:07:38;;;;;;;50.30;26.37;;;;;;;4.03;76.43;98257.55;1735371;82;21242;-83
2020/12/18 10:10:10;;;;;;;44.25;24.02;;;;;;;3.99;76.67;98262.02;1761280;80;21297;-79
2020/12/18 10:12:39;;;;;;;47.33;25.15;;;;;;;4.08;76.56;98260.86;1730422;82;22231;-78
2020/12/18 10:15:06;;;;;;;50.48;26.15;;;;;;;4.03;75.97;98265.38;1732996;82;21172;-79
2020/12/18 10:17:35;;;;;;;32.75;14.18;;;;;;;3.97;76.02;98258.61;1733236;81;21312;-79
2020/12/18 10:20:05;;;;;;;50.35;24.57;;;;;;;3.99;75.93;98271.16;1735858;78;21274;-82
2020/12/18 10:22:34;;;;;;;50.03;24.77;;;;;;;3.87;76.07;98263.74;1756585;79;21238;-82
2020/12/18 10:25:02;;;;;;;51.68;24.35;;;;;;;3.89;76.43;98261.94;1692385;82;21246;-78
2020/12/18 10:27:30;;;;;;;35.03;15.98;;;;;;;3.95;76.46;98257.80;1731762;79;21122;-84
2020/12/18 10:30:06;;;;;;;47.13;24.40;;;;;;;3.98;76.25;98260.78;1735889;78;21282;-81
2020/12/18 10:32:58;;;;;;;48.63;24.45;;;;;;;3.91;76.25;98262.75;1757035;80;21282;-86
2020/12/18 10:36:00;;;;;;;38.83;15.48;;;;;;;3.97;76.35;98266.91;1713710;81;21234;-81
2020/12/18 10:38:29;;;;;;;49.58;25.15;;;;;;;4.03;76.28;98263.63;1709628;81;21120;-80
2020/12/18 10:41:01;;;;;;;46.63;24.12;;;;;;;3.96;76.13;98259.52;1683885;83;21208;-83
2020/12/18 10:43:42;;;;;;;58.48;25.43;;;;;;;4.06;76.10;98262.67;1708431;82;21471;-83
2020/12/18 10:46:11;;;;;;;48.02;25.37;;;;;;;4.05;76.21;98257.05;1721156;81;21172;-81
2020/12/18 10:49:27;;;;;;;51.70;25.48;;;;;;;3.99;75.57;98256.81;1735446;79;21128;-86
2020/12/18 10:52:15;;;;;;;47.90;21.45;;;;;;;4.00;76.31;98260.25;1744686;79;21262;-82
2020/12/18 10:54:47;;;;;;;51.37;25.72;;;;;;;4.03;76.58;98253.63;1727109;81;21266;-81
2020/12/18 10:57:33;;;;;;;44.35;20.85;;;;;;;4.00;76.34;98248.52;1692249;81;21116;-79
2020/12/18 11:00:03;;;;;;;41.42;19.05;;;;;;;4.05;76.48;98248.75;1729171;81;21245;-82
2020/12/18 11:02:42;;;;;;;46.02;22.45;;;;;;;4.12;75.98;98245.95;1762034;79;21160;-80
2020/12/18 11:05:20;;;;;;;47.53;27.13;;;;;;;4.04;75.91;98252.73;1721670;81;21520;-80
2020/12/18 11:08:31;;;;;;;55.90;27.15;;;;;;;3.99;76.07;98246.84;1711708;79;21124;-80
2020/12/18 11:12:01;;;;;;;46.70;22.27;;;;;;;4.10;76.41;98250.36;1699371;82;21166;-80
2020/12/18 11:15:00;;;;;;;34.88;14.95;;;;;;;4.22;76.22;98246.86;1667928;84;21176;-81
2020/12/18 11:17:50;;;;;;;44.40;24.57;;;;;;;4.14;75.74;98242.37;1668883;84;21220;-83
2020/12/18 11:21:15;;;;;;;49.73;26.70;;;;;;;4.10;75.91;98245.14;1625091;86;21189;-85
2020/12/18 11:24:11;;;;;;;46.10;24.05;;;;;;;4.09;75.71;98242.97;1633812;84;21416;-82
2020/12/18 11:27:16;;;;;;;49.03;24.27;;;;;;;4.14;75.81;98245.41;1631829;85;21236;-82
2020/12/18 11:29:55;;;;;;;46.95;24.20;;;;;;;4.10;75.85;98243.84;1636937;87;21355;-81
2020/12/18 11:32:33;;;;;;;47.55;24.05;;;;;;;4.19;75.98;98245.65;1652439;79;21135;-81
2020/12/18 11:35:06;;;;;;;39.80;20.52;;;;;;;4.25;75.91;98247.19;1709586;82;21158;-84
2020/12/18 11:38:00;;;;;;;44.42;22.50;;;;;;;4.29;75.93;98248.80;1712712;82;21267;-82
2020/12/18 11:40:36;;;;;;;36.93;18.42;;;;;;;4.34;75.77;98257.77;1719426;82;21275;-81
2020/12/18 11:43:19;;;;;;;42.62;23.22;;;;;;;4.34;75.23;98258.60;1712353;82;21162;-82
2020/12/18 11:46:18;;;;;;;31.12;16.02;;;;;;;4.19;75.29;98250.88;1729651;82;21306;-82
2020/12/18 11:48:51;;;;;;;44.27;22.52;;;;;;;4.19;75.38;98256.09;1748240;80;21502;-81
2020/12/18 11:51:29;;;;;;;34.48;19.45;;;;;;;4.16;75.46;98248.39;1715274;80;21262;-80
2020/12/18 11:54:04;;;;;;;26.33;12.23;;;;;;;4.22;75.26;98243.41;1723104;82;21274;-81
2020/12/18 11:56:40;;;;;;;34.98;16.65;;;;;;;4.17;74.85;98246.19;1747292;81;21235;-81
2020/12/18 11:59:23;;;;;;;39.13;20.30;;;;;;;4.05;75.21;98239.63;1730710;82;21206;-81
2020/12/18 12:02:04;;;;;;;36.40;19.62;;;;;;;4.04;75.64;98239.22;1727275;82;21266;-82
2020/12/18 12:05:22;;;;;;;34.43;14.70;;;;;;;4.12;75.53;98239.42;1724263;82;21151;-83
2020/12/18 12:08:06;;;;;;;39.23;18.45;;;;;;;4.17;75.60;98240.09;1728136;81;21266;-81
2020/12/18 12:10:48;;;;;;;47.88;19.67;;;;;;;4.01;75.51;98241.09;1743937;79;21196;-81
2020/12/18 12:13:33;;;;;;;38.10;19.73;;;;;;;3.91;75.54;98241.41;1728571;81;21219;-82
2020/12/18 12:16:24;;;;;;;31.82;14.10;;;;;;;3.86;75.91;98245.08;1713394;82;21203;-80
2020/12/18 12:19:08;;;;;;;46.08;22.30;;;;;;;3.91;76.13;98247.09;1714944;82;21271;-81
2020/12/18 12:22:06;;;;;;;40.40;19.98;;;;;;;3.96;76.18;98243.02;1721575;81;21244;-81
2020/12/18 12:24:55;;;;;;;39.63;22.45;;;;;;;4.04;76.19;98238.38;1712106;79;21253;-83
2020/12/18 12:28:47;;;;;;;33.08;17.70;;;;;;;4.09;75.95;98242.97;1719733;79;21169;-82
2020/12/18 12:31:17;;;;;;;22.58;11.18;;;;;;;4.09;75.71;98249.95;1712138;82;21196;-81
2020/12/18 12:33:45;;;;;;;46.25;24.65;;;;;;;4.07;75.52;98247.41;1718297;81;21220;-83